Long Lake, Illinois
Current Conditions -  °F | °C
As of 9:55 AM on Friday 24 Oct 2014 (Local Time) from KUGN Reporting Station
Haze Haze  
Wind Chill: 51°   Ceiling: 400
Heat Index: 51°   Visibility: 4mi
Dew Point: 48°   Wind: 5mph
Humidity: 89%   Direction: NA
Pressure: 30.06"   Gusts: NA
Location:  42.367°N, 88.1557°W
Report Text: KUGN 241455Z VRB04KT 4SM BR OVC004 11/09 A3006 RMK AO2 SLP180 T01060089 51006
Loading
Personal Weather Stations






























Interactive Weather Map
Tropical Storm Tracking
New forecast layout! Learn more

10-Day Weather Forecast

Advertisements
Track Severe Weather on mobile